createdAt,value
2023-04-11T00:00:11.931Z,100174.44
2023-04-11T00:02:13.588Z,100182.25
2023-04-11T00:04:16.743Z,100182.25
2023-04-11T00:06:18.505Z,100173.63
2023-04-11T00:08:21.477Z,100185.59
2023-04-11T00:10:23.006Z,100184.34
2023-04-11T00:12:24.559Z,100184.81
2023-04-11T00:14:26.199Z,100178.28
2023-04-11T00:16:27.750Z,100196.66
2023-04-11T00:18:29.518Z,100197.75
2023-04-11T00:20:31.059Z,100205.75
2023-04-11T00:22:32.599Z,100205.09
2023-04-11T00:24:35.866Z,100197.28
2023-04-11T00:26:37.605Z,100189.28
2023-04-11T00:28:39.161Z,100176.03
2023-04-11T00:30:40.719Z,100173.63
2023-04-11T00:32:42.324Z,100182.56
2023-04-11T00:34:43.866Z,100180.31
2023-04-11T00:36:45.527Z,100169.63
2023-04-11T00:38:47.148Z,100177.47
2023-04-11T00:40:50.068Z,100172.34
2023-04-11T00:42:51.642Z,100194.22
2023-04-11T00:44:53.197Z,100205.22
2023-04-11T00:46:54.904Z,100195.19
2023-04-11T00:48:56.965Z,100185.94
2023-04-11T00:50:58.689Z,100180.31
2023-04-11T00:53:00.360Z,100176.97
2023-04-11T00:55:02.304Z,100166.59
2023-04-11T00:57:05.391Z,100150.31
2023-04-11T00:59:06.994Z,100145.19
2023-04-11T01:01:08.755Z,100151.28
2023-04-11T01:03:10.460Z,100150.78
2023-04-11T01:05:13.742Z,100152.06
2023-04-11T01:07:17.209Z,100155.41
2023-04-11T01:09:21.397Z,100149.50
2023-04-11T01:11:24.095Z,100153.97
2023-04-11T01:13:28.159Z,100147.25
2023-04-11T01:15:32.734Z,100166.91
2023-04-11T01:17:34.525Z,100164.84
2023-04-11T01:19:36.282Z,100174.75
2023-04-11T01:21:37.998Z,100186.56
2023-04-11T01:23:40.969Z,100185.75
2023-04-11T01:25:42.779Z,100197.25
2023-04-11T01:27:44.528Z,100198.66
2023-04-11T01:29:46.096Z,100209.06
2023-04-11T01:31:49.656Z,100219.09
2023-04-11T01:33:51.233Z,100226.47
2023-04-11T01:35:53.191Z,100221.81
2023-04-11T01:37:54.996Z,100218.00
2023-04-11T01:39:58.004Z,100217.03
2023-04-11T01:42:01.821Z,100220.38
2023-04-11T01:44:04.241Z,100221.97
2023-04-11T01:46:06.472Z,100216.38
2023-04-11T01:48:08.379Z,100210.28
2023-04-11T01:50:10.396Z,100219.22
2023-04-11T01:52:11.972Z,100218.88
2023-04-11T01:54:13.583Z,100218.41
2023-04-11T01:56:16.718Z,100216.19
2023-04-11T01:58:18.277Z,100215.38
2023-04-11T02:00:20.799Z,100209.28
2023-04-11T02:02:22.697Z,100218.25
2023-04-11T02:04:24.672Z,100207.72
2023-04-11T02:06:26.346Z,100203.88
2023-04-11T02:08:27.974Z,100203.38
2023-04-11T02:10:29.593Z,100209.47
2023-04-11T02:12:32.642Z,100201.16
2023-04-11T02:14:53.972Z,100197.28
2023-04-11T02:16:56.598Z,100200.03
2023-04-11T02:18:58.395Z,100189.34
2023-04-11T02:21:00.144Z,100211.06
2023-04-11T02:23:01.715Z,100210.28
2023-04-11T02:25:03.548Z,100204.41
2023-04-11T02:27:05.252Z,100205.00
2023-04-11T02:29:08.585Z,100209.66
2023-04-11T02:31:10.208Z,100207.28
2023-04-11T02:33:11.914Z,100206.63
2023-04-11T02:35:13.490Z,100212.66
2023-04-11T02:37:15.215Z,100204.84
2023-04-11T02:39:17.062Z,100213.25
2023-04-11T02:41:18.557Z,100214.97
2023-04-11T02:43:20.078Z,100217.03
2023-04-11T02:45:23.000Z,100217.16
2023-04-11T02:47:24.632Z,100217.44
2023-04-11T02:49:26.282Z,100228.00
2023-04-11T02:51:27.928Z,100228.13
2023-04-11T02:53:29.575Z,100233.63
2023-04-11T02:55:31.207Z,100238.25
2023-04-11T02:57:32.820Z,100248.13
2023-04-11T02:59:37.498Z,100247.44
2023-04-11T03:01:40.572Z,100247.88
2023-04-11T03:03:42.399Z,100245.78
2023-04-11T03:05:44.024Z,100250.53
2023-04-11T03:07:45.699Z,100247.31
2023-04-11T03:09:47.292Z,100244.44
2023-04-11T03:11:48.947Z,100245.59
2023-04-11T03:13:50.539Z,100243.84
2023-04-11T03:15:52.150Z,100247.59
2023-04-11T03:17:55.111Z,100249.56
2023-04-11T03:19:56.714Z,100247.59
2023-04-11T03:21:58.361Z,100251.91
2023-04-11T03:23:59.969Z,100262.59
2023-04-11T03:26:01.662Z,100270.13
2023-04-11T03:28:03.694Z,100275.25
2023-04-11T03:30:06.279Z,100263.00
2023-04-11T03:32:07.872Z,100265.13
2023-04-11T03:34:10.780Z,100274.94
2023-04-11T03:36:12.885Z,100259.53
2023-04-11T03:38:14.532Z,100265.13
2023-04-11T03:40:16.298Z,100265.63
2023-04-11T03:42:17.984Z,100261.88
2023-04-11T03:44:19.563Z,100250.94
2023-04-11T03:46:21.246Z,100252.31
2023-04-11T03:48:22.986Z,100249.22
2023-04-11T03:50:26.067Z,100247.50
2023-04-11T03:52:27.689Z,100242.41
2023-04-11T03:54:29.272Z,100252.75
2023-04-11T03:56:30.989Z,100252.63
2023-04-11T03:58:32.639Z,100262.78
2023-04-11T04:00:34.264Z,100268.59
2023-04-11T04:02:35.990Z,100268.66
2023-04-11T04:04:37.985Z,100269.38
2023-04-11T04:06:41.068Z,100276.00
2023-04-11T04:08:42.601Z,100285.72
2023-04-11T04:10:44.283Z,100274.09
2023-04-11T04:12:45.854Z,100271.97
2023-04-11T04:14:47.590Z,100258.75
2023-04-11T04:16:49.279Z,100269.13
2023-04-11T04:18:50.888Z,100262.63
2023-04-11T04:20:52.447Z,100284.19
2023-04-11T04:22:55.429Z,100284.00
2023-04-11T04:24:56.932Z,100255.63
2023-04-11T04:26:58.502Z,100254.63
2023-04-11T04:29:00.179Z,100237.38
2023-04-11T04:31:01.733Z,100210.84
2023-04-11T04:33:03.569Z,100194.59
2023-04-11T04:35:06.248Z,100204.41
2023-04-11T04:37:07.793Z,100219.00
2023-04-11T04:39:10.728Z,100251.78
2023-04-11T04:41:12.905Z,100257.09
2023-04-11T04:43:15.594Z,100264.19
2023-04-11T04:45:17.159Z,100267.69
2023-04-11T04:47:19.556Z,100279.31
2023-04-11T04:49:21.228Z,100283.03
2023-04-11T04:51:22.803Z,100284.44
2023-04-11T04:53:24.402Z,100273.47
2023-04-11T04:55:27.388Z,100264.13
2023-04-11T04:57:30.205Z,100255.31
2023-04-11T04:59:31.863Z,100264.03
2023-04-11T05:01:33.470Z,100254.31
2023-04-11T05:03:38.185Z,100267.31
2023-04-11T05:05:39.841Z,100282.34
2023-04-11T05:07:41.535Z,100284.56
2023-04-11T05:09:43.086Z,100286.13
2023-04-11T05:11:51.959Z,100285.28
2023-04-11T05:13:53.913Z,100288.13
2023-04-11T05:15:55.734Z,100306.75
2023-04-11T05:17:57.369Z,100314.34
2023-04-11T05:19:59.056Z,100314.88
2023-04-11T05:22:00.813Z,100314.34
2023-04-11T05:24:02.485Z,100311.59
2023-04-11T05:26:04.506Z,100304.56
2023-04-11T05:28:07.474Z,100319.22
2023-04-11T05:30:10.396Z,100317.78
2023-04-11T05:32:11.922Z,100329.25
2023-04-11T05:34:13.492Z,100325.66
2023-04-11T05:36:15.185Z,100328.00
2023-04-11T05:38:16.792Z,100326.38
2023-04-11T05:40:18.452Z,100326.53
2023-04-11T05:42:20.045Z,100333.69
2023-04-11T05:44:23.267Z,100331.91
2023-04-11T05:46:24.921Z,100345.34
2023-04-11T05:48:26.501Z,100341.09
2023-04-11T05:50:28.074Z,100341.91
2023-04-11T05:52:29.598Z,100347.75
2023-04-11T05:54:32.295Z,100339.94
2023-04-11T05:56:33.939Z,100351.31
2023-04-11T05:58:35.623Z,100354.78
2023-04-11T06:00:38.786Z,100355.41
2023-04-11T06:02:41.554Z,100360.09
2023-04-11T06:04:43.317Z,100364.13
2023-04-11T06:06:44.937Z,100366.78
2023-04-11T06:08:46.509Z,100367.47
2023-04-11T06:10:48.005Z,100375.91
2023-04-11T06:12:49.545Z,100375.41
2023-04-11T06:14:51.069Z,100385.66
2023-04-11T06:16:54.382Z,100383.75
2023-04-11T06:18:55.933Z,100391.16
2023-04-11T06:20:57.489Z,100389.16
2023-04-11T06:22:59.082Z,100394.69
2023-04-11T06:25:00.858Z,100398.63
2023-04-11T06:27:02.434Z,100386.69
2023-04-11T06:29:05.582Z,100385.59
2023-04-11T06:31:09.036Z,100395.59
2023-04-11T06:33:12.145Z,100403.16
2023-04-11T06:35:13.862Z,100411.28
2023-04-11T06:37:15.380Z,100412.47
2023-04-11T06:39:16.883Z,100417.16
2023-04-11T06:41:18.879Z,100411.88
2023-04-11T06:43:20.479Z,100417.22
2023-04-11T06:45:22.067Z,100418.78
2023-04-11T06:47:23.773Z,100425.94
2023-04-11T06:49:27.051Z,100426.13
2023-04-11T06:51:28.796Z,100432.44
2023-04-11T06:53:30.373Z,100441.59
2023-04-11T06:55:31.950Z,100442.84
2023-04-11T06:57:33.518Z,100448.69
2023-04-11T06:59:35.129Z,100441.06
2023-04-11T07:01:36.932Z,100446.81
2023-04-11T07:03:39.138Z,100450.25
2023-04-11T07:05:42.200Z,100452.25
2023-04-11T07:07:43.837Z,100457.78
2023-04-11T07:09:45.418Z,100471.41
2023-04-11T07:11:46.975Z,100469.97
2023-04-11T07:13:49.879Z,100464.75
2023-04-11T07:15:51.493Z,100460.44
2023-04-11T07:17:53.121Z,100462.34
2023-04-11T07:19:54.839Z,100467.75
2023-04-11T07:21:57.790Z,100472.19
2023-04-11T07:23:59.351Z,100469.97
2023-04-11T07:26:00.892Z,100470.59
2023-04-11T07:28:02.940Z,100465.75
2023-04-11T07:30:05.372Z,100469.69
2023-04-11T07:32:06.994Z,100476.09
2023-04-11T07:34:08.608Z,100478.00
2023-04-11T07:36:11.366Z,100476.41
2023-04-11T07:38:14.348Z,100471.25
2023-04-11T07:40:16.083Z,100459.56
2023-04-11T07:42:17.702Z,100466.16
2023-04-11T07:44:19.292Z,100465.56
2023-04-11T07:46:20.865Z,100471.69
2023-04-11T07:48:23.642Z,100476.41
2023-04-11T07:50:25.259Z,100478.81
2023-04-11T07:52:26.812Z,100483.06
2023-04-11T07:54:29.695Z,100465.97
2023-04-11T07:56:31.772Z,100468.69
2023-04-11T07:58:33.278Z,100473.00
2023-04-11T08:00:35.088Z,100477.00
2023-04-11T08:02:36.808Z,100482.34
2023-04-11T08:04:38.519Z,100477.41
2023-04-11T08:06:40.112Z,100479.03
2023-04-11T08:08:41.730Z,100476.72
2023-04-11T08:10:44.857Z,100481.13
2023-04-11T08:12:46.499Z,100474.88
2023-04-11T08:14:48.086Z,100469.63
2023-04-11T08:16:52.272Z,100475.38
2023-04-11T08:18:54.440Z,100471.16
2023-04-11T08:20:56.005Z,100469.63
2023-04-11T08:22:57.638Z,100467.81
2023-04-11T08:24:59.260Z,100465.41
2023-04-11T08:27:02.213Z,100464.22
2023-04-11T08:29:03.849Z,100468.59
2023-04-11T08:31:05.726Z,100473.19
2023-04-11T08:33:07.329Z,100472.84
2023-04-11T08:35:10.033Z,100468.38
2023-04-11T08:37:19.340Z,100479.03
2023-04-11T08:39:20.941Z,100472.88
2023-04-11T08:41:22.467Z,100466.66
2023-04-11T08:43:33.295Z,100480.84
2023-04-11T08:45:34.910Z,100469.59
2023-04-11T08:47:36.682Z,100474.13
2023-04-11T08:49:38.254Z,100482.75
2023-04-11T08:51:43.323Z,100482.75
2023-04-11T08:53:44.885Z,100475.53
2023-04-11T08:55:46.881Z,100487.47
2023-04-11T08:57:48.440Z,100486.50
2023-04-11T08:59:51.861Z,100474.47
2023-04-11T09:02:06.341Z,100478.66
2023-04-11T09:04:08.122Z,100473.81
2023-04-11T09:06:10.304Z,100473.34
2023-04-11T09:08:13.306Z,100480.97
2023-04-11T09:10:18.188Z,100474.81
2023-04-11T09:12:29.245Z,100474.13
2023-04-11T09:14:31.850Z,100469.31
2023-04-11T09:16:35.391Z,100473.81
2023-04-11T09:18:38.549Z,100479.97
2023-04-11T09:20:40.128Z,100475.38
2023-04-11T09:22:43.148Z,100477.59
2023-04-11T09:24:44.753Z,100482.19
2023-04-11T09:26:46.273Z,100469.09
2023-04-11T09:28:48.629Z,100476.28
2023-04-11T09:30:50.935Z,100480.66
2023-04-11T09:32:54.340Z,100476.34
2023-04-11T09:35:08.151Z,100479.16
2023-04-11T09:37:09.700Z,100479.16
2023-04-11T09:39:17.962Z,100476.59
2023-04-11T09:41:30.255Z,100486.81
2023-04-11T09:43:50.067Z,100483.72
2023-04-11T09:46:09.474Z,100484.84
2023-04-11T09:48:13.332Z,100492.84
2023-04-11T09:50:15.389Z,100504.22
2023-04-11T09:52:18.721Z,100501.84
2023-04-11T09:54:21.091Z,100504.50
2023-04-11T09:56:22.796Z,100506.03
2023-04-11T09:58:24.472Z,100503.47
2023-04-11T10:00:27.797Z,100507.22
2023-04-11T10:02:29.474Z,100510.75
2023-04-11T10:04:32.521Z,100506.63
2023-04-11T10:06:42.798Z,100507.63
2023-04-11T10:08:44.686Z,100503.63
2023-04-11T10:10:46.336Z,100505.41
2023-04-11T10:12:49.340Z,100503.63
2023-04-11T10:14:50.969Z,100505.72
2023-04-11T10:17:12.727Z,100506.34
2023-04-11T10:19:24.194Z,100510.81
2023-04-11T10:21:39.702Z,100514.00
2023-04-11T10:24:09.325Z,100510.66
2023-04-11T10:26:10.968Z,100511.56
2023-04-11T10:28:29.906Z,100506.13
2023-04-11T10:30:59.146Z,100509.59
2023-04-11T10:33:10.710Z,100502.63
2023-04-11T10:35:33.397Z,100507.75
2023-04-11T10:37:37.190Z,100499.63
2023-04-11T10:40:04.526Z,100495.00
2023-04-11T10:42:27.046Z,100498.06
2023-04-11T10:44:28.622Z,100492.44
2023-04-11T10:46:30.332Z,100495.66
2023-04-11T10:48:32.130Z,100501.59
2023-04-11T10:50:41.558Z,100498.72
2023-04-11T10:52:44.631Z,100506.88
2023-04-11T10:54:46.277Z,100506.06
2023-04-11T10:56:54.849Z,100508.47
2023-04-11T10:58:56.512Z,100512.59
2023-04-11T11:03:25.943Z,100511.03
2023-04-11T11:05:27.699Z,100505.16
2023-04-11T11:07:29.250Z,100498.72
2023-04-11T11:09:32.895Z,100487.38
2023-04-11T11:11:34.565Z,100496.34
2023-04-11T11:13:40.155Z,100493.31
2023-04-11T11:15:47.526Z,100482.66
2023-04-11T11:17:49.297Z,100482.25
2023-04-11T11:19:50.938Z,100476.34
2023-04-11T11:21:52.820Z,100485.63
2023-04-11T11:23:58.650Z,100478.47
2023-04-11T11:26:01.866Z,100472.84
2023-04-11T11:28:05.403Z,100473.31
2023-04-11T11:30:10.825Z,100471.56
2023-04-11T11:32:21.337Z,100468.38
2023-04-11T11:34:27.448Z,100471.00
2023-04-11T11:36:30.045Z,100475.63
2023-04-11T11:38:32.134Z,100475.91
2023-04-11T11:40:33.801Z,100470.94
2023-04-11T11:42:37.388Z,100481.66
2023-04-11T11:44:39.021Z,100487.78
2023-04-11T11:47:00.888Z,100492.09
2023-04-11T11:49:04.330Z,100500.31
2023-04-11T11:51:06.275Z,100518.66
2023-04-11T11:53:12.604Z,100520.16
2023-04-11T11:55:30.504Z,100519.81
2023-04-11T11:57:32.278Z,100510.03
2023-04-11T11:59:35.289Z,100515.69
2023-04-11T12:01:37.901Z,100509.72
2023-04-11T12:03:40.260Z,100499.78
2023-04-11T12:05:41.992Z,100493.63
2023-04-11T12:07:43.710Z,100496.25
2023-04-11T12:09:47.748Z,100482.50
2023-04-11T12:11:54.430Z,100489.69
2023-04-11T12:13:56.251Z,100492.81
2023-04-11T12:16:01.193Z,100490.34
2023-04-11T12:18:06.070Z,100488.94
2023-04-11T12:20:09.082Z,100484.66
2023-04-11T12:22:10.802Z,100481.50
2023-04-11T12:24:12.391Z,100485.44
2023-04-11T12:26:13.953Z,100478.09
2023-04-11T12:28:15.845Z,100476.69
2023-04-11T12:30:17.721Z,100472.09
2023-04-11T12:32:20.802Z,100470.94
2023-04-11T12:34:22.428Z,100467.34
2023-04-11T12:36:24.087Z,100457.31
2023-04-11T12:38:25.697Z,100462.41
2023-04-11T12:40:27.358Z,100453.50
2023-04-11T12:42:28.979Z,100462.03
2023-04-11T12:44:30.623Z,100458.78
2023-04-11T12:46:32.213Z,100464.41
2023-04-11T12:48:35.117Z,100463.31
2023-04-11T12:50:36.780Z,100464.88
2023-04-11T12:52:38.395Z,100465.75
2023-04-11T12:54:40.068Z,100467.72
2023-04-11T12:56:41.649Z,100463.34
2023-04-11T12:58:43.242Z,100461.88
2023-04-11T13:00:44.783Z,100474.47
2023-04-11T13:02:46.613Z,100475.69
2023-04-11T13:04:51.023Z,100468.53
2023-04-11T13:06:52.795Z,100463.28
2023-04-11T13:08:54.650Z,100462.19
2023-04-11T13:10:56.450Z,100458.50
2023-04-11T13:13:00.649Z,100461.91
2023-04-11T13:15:08.432Z,100465.06
2023-04-11T13:17:10.067Z,100462.97
2023-04-11T13:19:11.585Z,100462.94
2023-04-11T13:21:14.887Z,100458.13
2023-04-11T13:23:17.345Z,100461.50
2023-04-11T13:25:19.248Z,100453.81
2023-04-11T13:27:20.897Z,100457.06
2023-04-11T13:29:22.473Z,100454.16
2023-04-11T13:31:24.095Z,100449.84
2023-04-11T13:33:34.694Z,100452.56
2023-04-11T13:35:36.242Z,100452.13
2023-04-11T13:37:39.136Z,100450.53
2023-04-11T13:39:40.933Z,100453.28
2023-04-11T13:41:42.499Z,100445.88
2023-04-11T13:43:44.129Z,100453.41
2023-04-11T13:45:45.852Z,100447.47
2023-04-11T13:47:47.484Z,100441.91
2023-04-11T13:49:49.042Z,100441.97
2023-04-11T13:51:51.039Z,100441.00
2023-04-11T13:53:53.997Z,100439.41
2023-04-11T13:55:55.810Z,100441.50
2023-04-11T13:57:57.762Z,100441.97
2023-04-11T13:59:59.385Z,100441.28
2023-04-11T14:02:01.117Z,100436.59
2023-04-11T14:04:02.933Z,100448.44
2023-04-11T14:06:05.128Z,100445.06
2023-04-11T14:08:07.016Z,100444.19
2023-04-11T14:10:10.912Z,100442.19
2023-04-11T14:12:12.716Z,100446.94
2023-04-11T14:14:14.441Z,100438.53
2023-04-11T14:16:16.057Z,100442.44
2023-04-11T14:18:17.719Z,100439.66
2023-04-11T14:20:20.324Z,100449.59
2023-04-11T14:22:22.047Z,100432.59
2023-04-11T14:24:23.808Z,100439.06
2023-04-11T14:26:26.835Z,100434.06
2023-04-11T14:28:28.476Z,100439.91
2023-04-11T14:30:30.339Z,100430.53
2023-04-11T14:32:32.065Z,100433.66
2023-04-11T14:34:33.719Z,100423.06
2023-04-11T14:36:35.537Z,100423.53
2023-04-11T14:38:37.104Z,100433.94
2023-04-11T14:40:38.981Z,100431.69
2023-04-11T14:42:42.037Z,100437.31
2023-04-11T14:44:43.679Z,100431.44
2023-04-11T14:46:45.385Z,100429.41
2023-04-11T14:48:47.212Z,100423.19
2023-04-11T14:50:48.791Z,100433.38
2023-04-11T14:52:50.818Z,100429.53
2023-04-11T14:54:52.494Z,100427.34
2023-04-11T14:56:54.060Z,100434.59
2023-04-11T14:58:57.071Z,100440.25
2023-04-11T15:00:58.822Z,100440.16
2023-04-11T15:03:00.545Z,100435.97
2023-04-11T15:05:02.238Z,100442.53
2023-04-11T15:07:03.775Z,100437.81
2023-04-11T15:09:05.291Z,100436.88
2023-04-11T15:11:07.099Z,100432.19
2023-04-11T15:13:08.646Z,100430.75
2023-04-11T15:15:12.724Z,100439.13
2023-04-11T15:17:14.313Z,100417.03
2023-04-11T15:19:15.911Z,100422.09
2023-04-11T15:21:17.499Z,100418.78
2023-04-11T15:23:19.598Z,100424.28
2023-04-11T15:25:21.272Z,100416.63
2023-04-11T15:27:23.051Z,100415.16
2023-04-11T15:29:24.653Z,100410.72
2023-04-11T15:31:27.639Z,100423.44
2023-04-11T15:33:29.815Z,100418.63
2023-04-11T15:35:31.430Z,100414.78
2023-04-11T15:37:32.998Z,100421.22
2023-04-11T15:39:34.541Z,100419.03
2023-04-11T15:41:36.148Z,100414.88
2023-04-11T15:43:37.722Z,100415.41
2023-04-11T15:45:39.305Z,100419.94
2023-04-11T15:47:42.273Z,100413.53
2023-04-11T15:49:43.830Z,100417.25
2023-04-11T15:51:48.115Z,100415.47
2023-04-11T15:53:49.746Z,100407.16
2023-04-11T15:55:51.349Z,100412.75
2023-04-11T15:57:52.939Z,100414.69
2023-04-11T15:59:58.682Z,100409.28
2023-04-11T16:02:00.408Z,100410.13
2023-04-11T16:04:03.726Z,100405.47
2023-04-11T16:06:06.236Z,100403.69
2023-04-11T16:08:07.976Z,100413.25
2023-04-11T16:10:09.982Z,100400.97
2023-04-11T16:12:11.557Z,100403.84
2023-04-11T16:14:13.127Z,100405.78
2023-04-11T16:16:14.862Z,100396.50
2023-04-11T16:18:16.479Z,100410.28
2023-04-11T16:20:19.874Z,100405.50
2023-04-11T16:22:21.620Z,100409.34
2023-04-11T16:24:23.340Z,100411.56
2023-04-11T16:26:25.062Z,100404.50
2023-04-11T16:28:26.673Z,100410.94
2023-04-11T16:30:28.293Z,100416.38
2023-04-11T16:32:30.021Z,100406.94
2023-04-11T16:34:31.715Z,100412.75
2023-04-11T16:36:34.791Z,100401.72
2023-04-11T16:38:36.525Z,100399.78
2023-04-11T16:40:38.150Z,100397.09
2023-04-11T16:42:40.085Z,100396.16
2023-04-11T16:44:41.867Z,100396.47
2023-04-11T16:46:44.329Z,100391.69
2023-04-11T16:48:48.233Z,100398.09
2023-04-11T16:50:49.856Z,100392.03
2023-04-11T16:52:52.789Z,100394.44
2023-04-11T16:54:54.406Z,100390.25
2023-04-11T16:56:56.167Z,100387.53
2023-04-11T16:58:57.731Z,100381.47
2023-04-11T17:00:59.880Z,100385.63
2023-04-11T17:03:01.595Z,100378.09
2023-04-11T17:05:03.673Z,100374.59
2023-04-11T17:07:05.376Z,100375.88
2023-04-11T17:09:08.277Z,100378.59
2023-04-11T17:11:10.542Z,100377.34
2023-04-11T17:13:12.139Z,100366.78
2023-04-11T17:15:13.683Z,100370.28
2023-04-11T17:17:15.384Z,100365.19
2023-04-11T17:19:17.008Z,100372.38
2023-04-11T17:21:19.352Z,100358.00
2023-04-11T17:23:31.983Z,100366.28
2023-04-11T17:25:42.281Z,100374.44
2023-04-11T17:27:43.910Z,100372.53
2023-04-11T17:29:45.479Z,100374.00
2023-04-11T17:31:47.018Z,100375.44
2023-04-11T17:33:48.589Z,100381.53
2023-04-11T17:35:50.935Z,100372.72
2023-04-11T17:37:52.530Z,100377.34
2023-04-11T17:39:54.156Z,100381.81
2023-04-11T17:41:59.314Z,100380.41
2023-04-11T17:44:00.925Z,100374.16
2023-04-11T17:46:02.462Z,100379.44
2023-04-11T17:48:04.653Z,100382.00
2023-04-11T17:50:07.853Z,100379.13
2023-04-11T17:52:09.419Z,100387.44
2023-04-11T17:54:11.049Z,100383.59
2023-04-11T17:56:15.485Z,100382.00
2023-04-11T17:58:18.421Z,100374.94
2023-04-11T18:00:21.079Z,100381.19
2023-04-11T18:02:22.860Z,100387.59
2023-04-11T18:04:24.855Z,100388.56
2023-04-11T18:06:26.726Z,100385.50
2023-04-11T18:08:43.351Z,100384.25
2023-04-11T18:10:49.812Z,100389.97
2023-04-11T18:12:52.362Z,100392.03
2023-04-11T18:14:55.307Z,100390.44
2023-04-11T18:16:56.932Z,100388.34
2023-04-11T18:18:58.519Z,100391.69
2023-04-11T18:21:02.714Z,100390.88
2023-04-11T18:23:05.646Z,100388.50
2023-04-11T18:25:08.613Z,100388.63
2023-04-11T18:27:11.270Z,100386.34
2023-04-11T18:29:12.907Z,100387.94
2023-04-11T18:31:15.843Z,100392.88
2023-04-11T18:33:18.955Z,100394.63
2023-04-11T18:35:21.445Z,100401.78
2023-04-11T18:37:23.884Z,100401.63
2023-04-11T18:39:26.081Z,100398.22
2023-04-11T18:41:27.736Z,100391.69
2023-04-11T18:43:29.400Z,100396.63
2023-04-11T18:45:31.103Z,100387.53
2023-04-11T18:47:34.875Z,100385.09
2023-04-11T18:49:36.537Z,100391.66
2023-04-11T18:51:38.105Z,100380.50
2023-04-11T18:53:39.694Z,100376.47
2023-04-11T18:55:41.523Z,100385.09
2023-04-11T18:57:45.343Z,100388.41
2023-04-11T18:59:51.023Z,100396.84
2023-04-11T19:01:53.383Z,100394.56
2023-04-11T19:04:00.215Z,100393.94
2023-04-11T19:06:02.219Z,100398.13
2023-04-11T19:08:05.398Z,100389.34
2023-04-11T19:10:07.977Z,100390.16
2023-04-11T19:12:10.062Z,100390.28
2023-04-11T19:14:11.747Z,100391.91
2023-04-11T19:16:13.451Z,100388.38
2023-04-11T19:18:15.064Z,100381.16
2023-04-11T19:20:18.109Z,100375.06
2023-04-11T19:22:19.735Z,100373.47
2023-04-11T19:24:21.412Z,100375.19
2023-04-11T19:26:23.159Z,100367.38
2023-04-11T19:28:25.026Z,100379.16
2023-04-11T19:30:26.682Z,100370.50
2023-04-11T19:32:28.329Z,100371.34
2023-04-11T19:34:29.980Z,100370.03
2023-04-11T19:36:32.930Z,100362.78
2023-04-11T19:38:34.545Z,100364.00
2023-04-11T19:40:36.144Z,100362.41
2023-04-11T19:42:37.899Z,100365.81
2023-04-11T19:44:39.842Z,100367.88
2023-04-11T19:46:41.617Z,100368.78
2023-04-11T19:48:43.811Z,100359.22
2023-04-11T19:50:45.425Z,100357.63
2023-04-11T19:52:48.440Z,100359.22
2023-04-11T19:54:50.075Z,100357.13
2023-04-11T19:56:52.367Z,100349.81
2023-04-11T19:58:54.036Z,100342.47
2023-04-11T20:00:55.663Z,100338.47
2023-04-11T20:02:57.580Z,100339.44
2023-04-11T20:04:59.313Z,100343.94
2023-04-11T20:07:00.920Z,100339.81
2023-04-11T20:09:04.039Z,100343.44
2023-04-11T20:11:05.791Z,100337.97
2023-04-11T20:13:07.453Z,100345.72
2023-04-11T20:15:09.938Z,100339.00
2023-04-11T20:17:11.503Z,100332.69
2023-04-11T20:19:14.220Z,100330.00
2023-04-11T20:21:15.893Z,100326.50
2023-04-11T20:23:17.621Z,100327.94
2023-04-11T20:25:20.742Z,100319.78
2023-04-11T20:27:22.292Z,100323.47
2023-04-11T20:29:24.029Z,100314.56
2023-04-11T20:31:25.878Z,100314.22
2023-04-11T20:33:27.641Z,100313.44
2023-04-11T20:35:29.353Z,100307.53
2023-04-11T20:37:31.293Z,100302.84
2023-04-11T20:39:33.297Z,100301.72
2023-04-11T20:41:36.214Z,100291.31
2023-04-11T20:43:37.757Z,100297.41
2023-04-11T20:45:39.518Z,100290.69
2023-04-11T20:47:41.948Z,100285.44
2023-04-11T20:49:43.565Z,100280.06
2023-04-11T20:51:45.661Z,100276.19
2023-04-11T20:53:47.297Z,100278.88
2023-04-11T20:55:48.971Z,100275.09
2023-04-11T20:57:52.004Z,100271.72
2023-04-11T20:59:53.629Z,100271.84
2023-04-11T21:01:55.322Z,100266.34
2023-04-11T21:03:57.505Z,100262.97
2023-04-11T21:05:59.424Z,100257.84
2023-04-11T21:08:01.033Z,100258.47
2023-04-11T21:10:03.065Z,100258.47
2023-04-11T21:12:05.176Z,100251.25
2023-04-11T21:14:08.166Z,100253.38
2023-04-11T21:16:09.909Z,100240.53
2023-04-11T21:18:11.696Z,100234.91
2023-04-11T21:20:13.938Z,100240.66
2023-04-11T21:22:15.577Z,100236.94
2023-04-11T21:24:17.281Z,100231.03
2023-04-11T21:26:18.932Z,100224.81
2023-04-11T21:28:20.614Z,100230.94
2023-04-11T21:30:23.621Z,100223.41
2023-04-11T21:32:25.289Z,100221.47
2023-04-11T21:34:26.880Z,100216.69
2023-04-11T21:36:28.466Z,100222.13
2023-04-11T21:38:30.059Z,100215.38
2023-04-11T21:40:31.663Z,100208.50
2023-04-11T21:42:33.326Z,100209.59
2023-04-11T21:44:34.911Z,100199.25
2023-04-11T21:46:37.913Z,100203.56
2023-04-11T21:48:39.682Z,100194.84
2023-04-11T21:50:41.327Z,100197.06
2023-04-11T21:52:42.968Z,100192.59
2023-04-11T21:54:44.701Z,100188.00
2023-04-11T21:56:46.271Z,100192.44
2023-04-11T21:58:47.909Z,100186.22
2023-04-11T22:00:49.494Z,100184.91
2023-04-11T22:02:52.599Z,100190.13
2023-04-11T22:05:05.558Z,100181.34
2023-04-11T22:07:08.341Z,100178.34
2023-04-11T22:09:09.947Z,100176.72
2023-04-11T22:11:11.498Z,100173.22
2023-04-11T22:13:14.304Z,100179.22
2023-04-11T22:15:15.964Z,100172.00
2023-04-11T22:17:17.550Z,100175.84
2023-04-11T22:19:20.512Z,100168.00
2023-04-11T22:21:22.210Z,100163.50
2023-04-11T22:23:23.852Z,100154.19
2023-04-11T22:25:25.737Z,100152.16
2023-04-11T22:27:27.486Z,100153.50
2023-04-11T22:29:29.150Z,100144.03
2023-04-11T22:31:31.015Z,100143.06
2023-04-11T22:33:32.662Z,100136.06
2023-04-11T22:35:35.644Z,100136.97
2023-04-11T22:37:37.286Z,100129.63
2023-04-11T22:39:39.002Z,100132.94
2023-04-11T22:41:40.634Z,100133.75
2023-04-11T22:43:42.740Z,100131.34
2023-04-11T22:45:44.369Z,100131.34
2023-04-11T22:47:46.222Z,100127.53
2023-04-11T22:49:47.812Z,100124.97
2023-04-11T22:51:50.750Z,100117.63
2023-04-11T22:53:52.393Z,100116.72
2023-04-11T22:55:54.472Z,100112.41
2023-04-11T22:57:56.050Z,100111.13
2023-04-11T22:59:58.757Z,100108.41
2023-04-11T23:02:00.440Z,100107.63
2023-04-11T23:04:02.280Z,100100.41
2023-04-11T23:06:04.523Z,100095.47
2023-04-11T23:08:07.751Z,100093.09
2023-04-11T23:10:09.678Z,100081.94
2023-04-11T23:12:11.337Z,100083.88
2023-04-11T23:14:13.443Z,100080.06
2023-04-11T23:16:15.088Z,100077.03
2023-04-11T23:18:16.678Z,100080.84
2023-04-11T23:20:18.528Z,100073.66
2023-04-11T23:22:20.107Z,100066.03